サル島 の空港の天気 - METARとTAF

アミルカル・カブラル国際空港 ( GVAC / SID ) - カーボベルデ サル島
飛行場実況気象(Metar)
観測時間10/20 03:00 CVT (10/20 04:00 UTC)
風向・風速北東 6m/s
視程10km以上
天気現象
全天の4割程度の雲 雲底高度 400m
気温25℃
湿度83%
気圧1013hPa
METARGVAC 200400Z 05012KT 9999 SCT013 25/22 Q1013 NOSIG
過去の天気等 Google飛行場航空写真 Wunderground天気予報

過去48時間のMETAR

飛行場予報(TAF)
発表時間: 10/19 22:00 CVT (10/19 23:00 UTC)
予報対象時間: 19日23時 CVT ~ 21日5時 CVT
風向・風速北東 6m/s
視程10km以上
全天の4割程度の雲 雲底高度 400m
TAF GVAC 192300Z 2000/2106 04012KT 9999 SCT013